createdAt,value
2018-09-20T00:00:07.175Z,18.40
2018-09-20T00:02:42.023Z,18.40
2018-09-20T00:05:13.553Z,18.30
2018-09-20T00:07:42.557Z,18.40
2018-09-20T00:10:15.506Z,18.40
2018-09-20T00:12:45.426Z,18.40
2018-09-20T00:15:22.332Z,18.30
2018-09-20T00:17:56.080Z,18.30
2018-09-20T00:20:30.726Z,18.30
2018-09-20T00:23:00.780Z,18.30
2018-09-20T00:25:32.510Z,18.30
2018-09-20T00:30:40.298Z,18.30
2018-09-20T00:33:09.313Z,18.30
2018-09-20T00:40:58.029Z,18.30
2018-09-20T00:43:26.946Z,18.30
2018-09-20T00:45:57.942Z,18.30
2018-09-20T00:48:33.272Z,18.30
2018-09-20T00:51:06.149Z,18.30
2018-09-20T00:53:39.817Z,18.30
2018-09-20T00:59:18.265Z,18.20
2018-09-20T01:01:52.317Z,18.20
2018-09-20T01:04:28.260Z,18.20
2018-09-20T01:07:00.337Z,18.20
2018-09-20T01:09:29.621Z,18.20
2018-09-20T01:12:15.537Z,18.20
2018-09-20T01:17:50.309Z,18.20
2018-09-20T01:20:22.685Z,18.20
2018-09-20T01:22:51.259Z,18.10
2018-09-20T01:25:25.862Z,18.20
2018-09-20T01:27:57.370Z,18.20
2018-09-20T01:33:10.381Z,18.10
2018-09-20T01:35:55.418Z,18.10
2018-09-20T01:38:26.685Z,18.10
2018-09-20T01:40:57.412Z,18.10
2018-09-20T01:43:26.355Z,18.10
2018-09-20T01:45:55.501Z,18.10
2018-09-20T01:48:27.638Z,18.10
2018-09-20T01:50:57.899Z,18.10
2018-09-20T01:53:30.470Z,18.00
2018-09-20T01:55:59.193Z,18.10
2018-09-20T01:58:36.059Z,18.10
2018-09-20T02:01:08.067Z,18.00
2018-09-20T02:03:41.247Z,18.00
2018-09-20T02:06:11.609Z,18.00
2018-09-20T02:08:40.604Z,18.00
2018-09-20T02:11:12.057Z,18.00
2018-09-20T02:13:51.416Z,18.00
2018-09-20T02:16:26.458Z,18.00
2018-09-20T02:19:00.913Z,18.00
2018-09-20T02:21:31.374Z,17.90
2018-09-20T02:24:21.340Z,17.90
2018-09-20T02:26:58.545Z,17.90
2018-09-20T02:29:47.812Z,17.90
2018-09-20T02:32:20.742Z,17.90
2018-09-20T02:34:50.431Z,17.90
2018-09-20T02:37:21.764Z,17.90
2018-09-20T02:39:56.401Z,17.90
2018-09-20T02:42:29.523Z,17.90
2018-09-20T02:44:59.041Z,17.90
2018-09-20T02:47:32.598Z,17.90
2018-09-20T02:50:01.838Z,17.90
2018-09-20T02:52:31.363Z,17.90
2018-09-20T02:55:01.563Z,17.80
2018-09-20T02:57:33.164Z,17.90
2018-09-20T03:00:02.730Z,17.80
2018-09-20T03:02:31.469Z,17.80
2018-09-20T03:05:01.481Z,17.80
2018-09-20T03:07:31.727Z,17.80
2018-09-20T03:10:04.531Z,17.80
2018-09-20T03:12:35.141Z,17.80
2018-09-20T03:17:59.297Z,17.80
2018-09-20T03:20:28.047Z,17.80
2018-09-20T03:22:56.642Z,17.80
2018-09-20T03:25:27.442Z,17.80
2018-09-20T03:28:03.224Z,17.80
2018-09-20T03:30:34.276Z,17.80
2018-09-20T03:33:12.047Z,17.80
2018-09-20T03:35:41.615Z,17.80
2018-09-20T03:38:11.690Z,17.80
2018-09-20T03:43:17.243Z,17.80
2018-09-20T03:48:23.718Z,17.80
2018-09-20T03:53:35.583Z,17.80
2018-09-20T03:56:25.942Z,17.80
2018-09-20T03:58:55.729Z,17.80
2018-09-20T04:01:34.477Z,17.80
2018-09-20T04:06:41.786Z,17.80
2018-09-20T04:09:13.837Z,17.80
2018-09-20T04:11:50.703Z,17.80
2018-09-20T04:20:05.625Z,17.80
2018-09-20T04:22:38.477Z,17.80
2018-09-20T04:25:08.206Z,17.80
2018-09-20T04:27:36.697Z,17.80
2018-09-20T04:30:16.291Z,17.80
2018-09-20T04:32:51.704Z,17.90
2018-09-20T04:35:20.526Z,17.80
2018-09-20T04:40:42.595Z,17.80
2018-09-20T04:43:15.819Z,17.80
2018-09-20T04:45:46.301Z,17.80
2018-09-20T04:48:17.707Z,17.80
2018-09-20T04:50:51.331Z,17.80
2018-09-20T04:53:22.459Z,17.80
2018-09-20T04:55:51.541Z,17.90
2018-09-20T04:58:30.356Z,17.90
2018-09-20T05:01:02.029Z,17.90
2018-09-20T05:03:36.447Z,17.80
2018-09-20T05:06:08.000Z,17.90
2018-09-20T05:08:44.191Z,17.90
2018-09-20T05:11:45.476Z,17.90
2018-09-20T05:14:25.149Z,17.90
2018-09-20T05:16:58.371Z,17.90
2018-09-20T05:19:29.785Z,17.90
2018-09-20T05:23:11.939Z,17.90
2018-09-20T05:25:43.388Z,17.80
2018-09-20T05:28:12.968Z,17.80
2018-09-20T05:30:50.202Z,17.90
2018-09-20T05:33:20.623Z,17.80
2018-09-20T05:35:54.908Z,17.80
2018-09-20T05:38:26.949Z,17.80
2018-09-20T05:40:57.032Z,17.80
2018-09-20T05:43:32.558Z,17.80
2018-09-20T05:46:04.923Z,17.80
2018-09-20T05:48:33.697Z,17.80
2018-09-20T05:53:57.747Z,17.80
2018-09-20T05:56:28.855Z,17.80
2018-09-20T05:59:00.582Z,17.80
2018-09-20T06:04:05.822Z,17.80
2018-09-20T06:06:37.916Z,17.80
2018-09-20T06:11:59.446Z,17.80
2018-09-20T06:14:29.007Z,17.80
2018-09-20T06:16:58.895Z,17.80
2018-09-20T06:19:36.743Z,17.80
2018-09-20T06:24:58.699Z,17.80
2018-09-20T06:27:34.077Z,17.80
2018-09-20T06:36:34.254Z,17.90
2018-09-20T06:41:49.558Z,18.00
2018-09-20T06:44:20.330Z,18.00
2018-09-20T06:46:59.647Z,18.00
2018-09-20T06:49:35.317Z,18.00
2018-09-20T06:52:08.388Z,18.10
2018-09-20T06:54:39.283Z,18.10
2018-09-20T06:57:10.187Z,18.10
2018-09-20T06:59:43.050Z,18.20
2018-09-20T07:02:13.006Z,18.20
2018-09-20T07:04:43.752Z,18.20
2018-09-20T07:12:52.065Z,18.30
2018-09-20T07:15:20.619Z,18.30
2018-09-20T07:17:49.956Z,18.30
2018-09-20T07:24:06.563Z,18.40
2018-09-20T07:26:35.344Z,18.40
2018-09-20T07:29:05.208Z,18.40
2018-09-20T07:31:36.872Z,18.50
2018-09-20T07:34:10.985Z,18.50
2018-09-20T07:36:58.049Z,18.50
2018-09-20T07:39:28.148Z,18.50
2018-09-20T07:42:02.288Z,18.50
2018-09-20T07:44:35.635Z,18.50
2018-09-20T07:47:14.871Z,18.50
2018-09-20T07:49:44.917Z,18.50
2018-09-20T07:52:14.823Z,18.50
2018-09-20T07:54:52.934Z,18.50
2018-09-20T07:57:21.473Z,18.50
2018-09-20T07:59:55.336Z,18.50
2018-09-20T08:02:25.976Z,18.50
2018-09-20T08:05:00.219Z,18.50
2018-09-20T08:07:32.765Z,18.50
2018-09-20T08:13:11.393Z,18.50
2018-09-20T08:15:40.614Z,18.60
2018-09-20T08:18:26.273Z,18.60
2018-09-20T08:20:59.025Z,18.60
2018-09-20T08:23:34.404Z,18.60
2018-09-20T08:26:25.050Z,18.60
2018-09-20T08:28:56.918Z,18.70
2018-09-20T08:34:16.354Z,18.70
2018-09-20T08:36:52.452Z,18.70
2018-09-20T08:39:24.438Z,18.70
2018-09-20T08:41:56.432Z,18.80
2018-09-20T08:44:27.710Z,18.80
2018-09-20T08:46:57.965Z,18.80
2018-09-20T08:52:17.959Z,18.90
2018-09-20T08:55:06.779Z,18.90
2018-09-20T08:57:48.524Z,19.00
2018-09-20T09:00:21.183Z,19.00
2018-09-20T09:03:00.769Z,19.10
2018-09-20T09:05:30.047Z,19.10
2018-09-20T09:08:01.850Z,19.20
2018-09-20T09:10:33.705Z,19.10
2018-09-20T09:13:10.422Z,19.20
2018-09-20T09:15:39.269Z,19.20
2018-09-20T09:18:09.966Z,19.20
2018-09-20T09:20:43.653Z,19.30
2018-09-20T09:23:12.553Z,19.30
2018-09-20T09:25:44.154Z,19.30
2018-09-20T09:30:53.617Z,19.40
2018-09-20T09:33:39.037Z,19.40
2018-09-20T09:36:07.823Z,19.50
2018-09-20T09:38:38.206Z,19.60
2018-09-20T09:41:10.870Z,19.60
2018-09-20T09:43:48.980Z,19.70
2018-09-20T09:46:24.046Z,19.70
2018-09-20T09:48:55.062Z,19.70
2018-09-20T09:51:25.627Z,19.80
2018-09-20T09:54:05.435Z,19.80
2018-09-20T09:56:35.215Z,19.90
2018-09-20T09:59:03.812Z,19.90
2018-09-20T10:01:32.282Z,20.00
2018-09-20T10:04:02.956Z,20.00
2018-09-20T10:06:31.414Z,20.00
2018-09-20T10:09:00.760Z,20.00
2018-09-20T10:11:35.108Z,20.10
2018-09-20T10:14:06.691Z,20.20
2018-09-20T10:19:18.310Z,20.20
2018-09-20T10:21:53.570Z,20.20
2018-09-20T10:24:24.144Z,20.30
2018-09-20T10:26:53.178Z,20.40
2018-09-20T10:29:21.805Z,20.40
2018-09-20T10:31:50.250Z,20.40
2018-09-20T10:34:19.783Z,20.40
2018-09-20T10:36:48.384Z,20.50
2018-09-20T10:39:16.829Z,20.50
2018-09-20T10:41:46.144Z,20.50
2018-09-20T10:44:14.959Z,20.60
2018-09-20T10:46:43.641Z,20.60
2018-09-20T10:49:12.045Z,20.60
2018-09-20T10:51:43.978Z,20.70
2018-09-20T10:54:13.517Z,20.70
2018-09-20T10:56:42.203Z,20.70
2018-09-20T10:59:10.966Z,20.70
2018-09-20T11:01:39.789Z,20.70
2018-09-20T11:04:08.090Z,20.80
2018-09-20T11:09:22.116Z,20.80
2018-09-20T11:11:56.824Z,20.80
2018-09-20T11:14:25.483Z,20.80
2018-09-20T11:16:53.917Z,20.90
2018-09-20T11:19:24.246Z,20.90
2018-09-20T11:21:55.412Z,21.00
2018-09-20T11:27:13.515Z,21.00
2018-09-20T11:29:42.547Z,21.10
2018-09-20T11:34:51.180Z,21.20
2018-09-20T11:37:19.833Z,21.20
2018-09-20T11:39:48.913Z,21.20
2018-09-20T11:42:19.733Z,21.20
2018-09-20T11:44:48.065Z,21.30
2018-09-20T11:47:18.558Z,21.30
2018-09-20T11:49:46.913Z,21.30
2018-09-20T11:52:17.746Z,21.30
2018-09-20T11:54:49.217Z,21.30
2018-09-20T11:57:17.604Z,21.40
2018-09-20T11:59:46.396Z,21.40
2018-09-20T12:02:14.974Z,21.40
2018-09-20T12:04:44.667Z,21.40
2018-09-20T12:07:13.597Z,21.50
2018-09-20T12:09:42.028Z,21.50
2018-09-20T12:12:10.561Z,21.50
2018-09-20T12:14:40.337Z,21.50
2018-09-20T12:17:08.811Z,21.50
2018-09-20T12:19:38.311Z,21.60
2018-09-20T12:22:08.117Z,21.60
2018-09-20T12:24:40.653Z,21.70
2018-09-20T12:27:10.052Z,21.70
2018-09-20T12:29:38.582Z,21.70
2018-09-20T12:32:07.040Z,21.80
2018-09-20T12:34:35.472Z,21.80
2018-09-20T12:37:03.911Z,21.80
2018-09-20T12:39:32.292Z,21.80
2018-09-20T12:44:40.469Z,21.90
2018-09-20T12:47:08.930Z,21.90
2018-09-20T12:49:37.444Z,21.90
2018-09-20T12:52:06.950Z,22.00
2018-09-20T12:54:37.273Z,22.00
2018-09-20T12:57:06.844Z,22.00
2018-09-20T12:59:47.190Z,22.00
2018-09-20T13:02:16.667Z,22.00
2018-09-20T13:04:46.810Z,22.00
2018-09-20T13:07:16.993Z,22.00
2018-09-20T13:09:47.404Z,22.10
2018-09-20T13:12:15.878Z,22.10
2018-09-20T13:14:44.305Z,22.10
2018-09-20T13:17:14.283Z,22.20
2018-09-20T13:19:42.766Z,22.20
2018-09-20T13:22:11.859Z,22.20
2018-09-20T13:24:40.538Z,22.20
2018-09-20T13:27:10.177Z,22.30
2018-09-20T13:29:40.657Z,22.30
2018-09-20T13:32:12.884Z,22.40
2018-09-20T13:34:41.328Z,22.40
2018-09-20T13:37:09.938Z,22.40
2018-09-20T13:39:41.615Z,22.40
2018-09-20T13:42:15.081Z,22.40
2018-09-20T13:44:43.550Z,22.50
2018-09-20T13:47:11.984Z,22.50
2018-09-20T13:49:42.569Z,22.50
2018-09-20T13:52:14.123Z,22.50
2018-09-20T13:54:43.358Z,22.50
2018-09-20T13:57:11.697Z,22.50
2018-09-20T13:59:42.073Z,22.50
2018-09-20T14:02:11.903Z,22.50
2018-09-20T14:04:42.558Z,22.60
2018-09-20T14:07:11.010Z,22.60
2018-09-20T14:09:42.373Z,22.60
2018-09-20T14:12:10.948Z,22.60
2018-09-20T14:14:40.245Z,22.60
2018-09-20T14:17:09.301Z,22.60
2018-09-20T14:19:43.006Z,22.60
2018-09-20T14:22:13.216Z,22.60
2018-09-20T14:24:44.958Z,22.50
2018-09-20T14:27:13.737Z,22.50
2018-09-20T14:29:42.151Z,22.50
2018-09-20T14:32:10.964Z,22.50
2018-09-20T14:34:39.501Z,22.50
2018-09-20T14:37:08.048Z,22.50
2018-09-20T14:39:36.421Z,22.50
2018-09-20T14:42:05.051Z,22.40
2018-09-20T14:44:34.636Z,22.50
2018-09-20T14:47:03.030Z,22.50
2018-09-20T14:49:33.196Z,22.50
2018-09-20T14:52:03.447Z,22.40
2018-09-20T14:54:32.461Z,22.40
2018-09-20T14:57:01.747Z,22.40
2018-09-20T14:59:30.089Z,22.40
2018-09-20T15:01:59.236Z,22.40
2018-09-20T15:04:28.225Z,22.40
2018-09-20T15:07:02.306Z,22.40
2018-09-20T15:09:30.614Z,22.40
2018-09-20T15:12:01.545Z,22.40
2018-09-20T15:14:31.086Z,22.40
2018-09-20T15:17:03.320Z,22.40
2018-09-20T15:19:32.600Z,22.40
2018-09-20T15:22:01.289Z,22.40
2018-09-20T15:24:30.999Z,22.40
2018-09-20T15:26:59.293Z,22.40
2018-09-20T15:29:28.191Z,22.40
2018-09-20T15:31:56.682Z,22.40
2018-09-20T15:34:25.535Z,22.40
2018-09-20T15:36:54.758Z,22.40
2018-09-20T15:39:23.715Z,22.40
2018-09-20T15:41:55.024Z,22.40
2018-09-20T15:44:27.679Z,22.40
2018-09-20T15:46:56.013Z,22.30
2018-09-20T15:52:26.587Z,22.30
2018-09-20T15:54:55.122Z,22.30
2018-09-20T15:57:23.857Z,22.30
2018-09-20T15:59:52.591Z,22.30
2018-09-20T16:02:21.062Z,22.30
2018-09-20T16:04:52.157Z,22.30
2018-09-20T16:07:20.992Z,22.30
2018-09-20T16:09:52.074Z,22.30
2018-09-20T16:12:20.595Z,22.30
2018-09-20T16:14:49.303Z,22.20
2018-09-20T16:17:17.704Z,22.20
2018-09-20T16:19:47.911Z,22.20
2018-09-20T16:22:21.726Z,22.20
2018-09-20T16:24:51.783Z,22.20
2018-09-20T16:27:23.346Z,22.20
2018-09-20T16:34:11.957Z,22.10
2018-09-20T16:37:51.796Z,22.10
2018-09-20T16:40:22.228Z,22.00
2018-09-20T16:42:51.124Z,22.00
2018-09-20T16:45:22.980Z,22.00
2018-09-20T16:47:53.865Z,22.00
2018-09-20T16:50:22.542Z,21.90
2018-09-20T16:52:51.318Z,21.90
2018-09-20T16:55:20.719Z,21.90
2018-09-20T16:57:49.262Z,21.90
2018-09-20T17:00:17.753Z,21.80
2018-09-20T17:02:46.879Z,21.80
2018-09-20T17:05:15.370Z,21.80
2018-09-20T17:07:44.222Z,21.70
2018-09-20T17:10:13.197Z,21.70
2018-09-20T17:15:22.619Z,21.70
2018-09-20T17:17:55.804Z,21.60
2018-09-20T17:20:24.507Z,21.60
2018-09-20T17:22:53.300Z,21.50
2018-09-20T17:25:21.994Z,21.50
2018-09-20T17:27:52.002Z,21.50
2018-09-20T17:30:22.632Z,21.40
2018-09-20T17:32:51.554Z,21.40
2018-09-20T17:35:20.875Z,21.40
2018-09-20T17:37:50.784Z,21.30
2018-09-20T17:40:21.989Z,21.30
2018-09-20T17:42:52.879Z,21.30
2018-09-20T17:45:21.593Z,21.20
2018-09-20T17:47:50.173Z,21.20
2018-09-20T17:50:19.529Z,21.20
2018-09-20T17:52:53.234Z,21.10
2018-09-20T17:55:27.938Z,21.10
2018-09-20T17:57:56.792Z,21.10
2018-09-20T18:00:25.547Z,21.10
2018-09-20T18:02:54.951Z,21.00
2018-09-20T18:05:24.415Z,21.00
2018-09-20T18:07:53.565Z,20.90
2018-09-20T18:10:22.323Z,20.90
2018-09-20T18:12:50.830Z,20.80
2018-09-20T18:15:20.277Z,20.80
2018-09-20T18:17:54.559Z,20.80
2018-09-20T18:20:24.558Z,20.70
2018-09-20T18:22:58.085Z,20.70
2018-09-20T18:25:26.802Z,20.70
2018-09-20T18:27:55.469Z,20.60
2018-09-20T18:33:12.120Z,20.60
2018-09-20T18:35:40.527Z,20.50
2018-09-20T18:41:02.702Z,20.50
2018-09-20T18:43:31.823Z,20.50
2018-09-20T18:46:01.722Z,20.40
2018-09-20T18:48:31.357Z,20.40
2018-09-20T18:51:07.096Z,20.40
2018-09-20T18:53:50.320Z,20.40
2018-09-20T18:56:20.966Z,20.40
2018-09-20T18:58:50.600Z,20.30
2018-09-20T19:01:22.030Z,20.30
2018-09-20T19:03:53.114Z,20.30
2018-09-20T19:06:26.592Z,20.20
2018-09-20T19:08:56.168Z,20.20
2018-09-20T19:11:27.040Z,20.20
2018-09-20T19:13:56.139Z,20.20
2018-09-20T19:16:24.990Z,20.20
2018-09-20T19:18:55.175Z,20.20
2018-09-20T19:21:23.615Z,20.20
2018-09-20T19:23:52.240Z,20.10
2018-09-20T19:26:21.161Z,20.10
2018-09-20T19:28:49.917Z,20.10
2018-09-20T19:34:13.593Z,20.10
2018-09-20T19:36:42.305Z,20.10
2018-09-20T19:39:12.004Z,20.10
2018-09-20T19:41:40.456Z,20.10
2018-09-20T19:44:08.993Z,20.10
2018-09-20T19:46:38.621Z,20.10
2018-09-20T19:49:08.033Z,20.10
2018-09-20T19:51:38.513Z,20.00
2018-09-20T19:54:06.950Z,20.00
2018-09-20T19:59:14.318Z,20.00
2018-09-20T20:04:18.299Z,20.00
2018-09-20T20:06:46.918Z,20.00
2018-09-20T20:22:22.537Z,20.00
2018-09-20T20:25:08.835Z,20.00
2018-09-20T20:27:37.392Z,20.00
2018-09-20T20:30:10.121Z,20.00
2018-09-20T20:35:14.717Z,20.00
2018-09-20T20:37:43.090Z,20.00
2018-09-20T20:42:56.038Z,19.90
2018-09-20T20:45:25.658Z,20.00
2018-09-20T20:47:54.232Z,20.00
2018-09-20T20:50:22.964Z,20.00
2018-09-20T20:52:51.681Z,19.90
2018-09-20T20:55:20.751Z,19.90
2018-09-20T21:00:40.751Z,19.90
2018-09-20T21:05:47.868Z,19.90
2018-09-20T21:08:21.787Z,19.90
2018-09-20T21:10:50.666Z,19.90
2018-09-20T21:13:18.997Z,19.90
2018-09-20T21:15:48.751Z,19.90
2018-09-20T21:18:17.089Z,19.90
2018-09-20T21:20:45.905Z,19.90
2018-09-20T21:26:05.875Z,19.90
2018-09-20T21:28:40.422Z,19.90
2018-09-20T21:31:11.097Z,19.90
2018-09-20T21:33:40.956Z,19.90
2018-09-20T21:36:10.558Z,19.90
2018-09-20T21:41:16.004Z,19.90
2018-09-20T21:43:46.394Z,19.90
2018-09-20T21:46:18.195Z,19.90
2018-09-20T21:48:53.088Z,19.80
2018-09-20T21:51:28.302Z,19.90
2018-09-20T21:53:57.058Z,19.90
2018-09-20T21:59:05.107Z,19.90
2018-09-20T22:04:25.983Z,19.80
2018-09-20T22:09:38.141Z,19.80
2018-09-20T22:12:14.415Z,19.80
2018-09-20T22:14:44.584Z,19.80
2018-09-20T22:17:13.138Z,19.80
2018-09-20T22:19:42.499Z,19.80
2018-09-20T22:22:15.230Z,19.80
2018-09-20T22:24:52.629Z,19.80
2018-09-20T22:27:21.488Z,19.80
2018-09-20T22:30:03.517Z,19.70
2018-09-20T22:32:39.603Z,19.70
2018-09-20T22:35:11.300Z,19.80
2018-09-20T22:37:40.371Z,19.70
2018-09-20T22:40:09.145Z,19.70
2018-09-20T22:42:41.349Z,19.70
2018-09-20T22:45:29.010Z,19.70
2018-09-20T22:54:41.159Z,19.70
2018-09-20T22:57:19.062Z,19.70
2018-09-20T22:59:52.704Z,19.70
2018-09-20T23:02:30.660Z,19.70
2018-09-20T23:07:39.840Z,19.60
2018-09-20T23:10:09.650Z,19.60
2018-09-20T23:12:42.635Z,19.60
2018-09-20T23:15:13.802Z,19.60
2018-09-20T23:17:46.569Z,19.60
2018-09-20T23:20:19.994Z,19.60
2018-09-20T23:22:48.732Z,19.60
2018-09-20T23:28:00.577Z,19.60
2018-09-20T23:30:35.582Z,19.60
2018-09-20T23:33:04.081Z,19.60
2018-09-20T23:35:34.051Z,19.60
2018-09-20T23:38:07.946Z,19.60
2018-09-20T23:40:36.966Z,19.50
2018-09-20T23:43:07.584Z,19.50
2018-09-20T23:45:37.636Z,19.50
2018-09-20T23:50:58.869Z,19.50
2018-09-20T23:53:27.660Z,19.50
2018-09-20T23:56:00.019Z,19.50
2018-09-20T23:58:32.435Z,19.50
